Time;durP1;ratioP1;P1;durP2;ratioP2;P2;SDS_P1;SDS_P2;PMS_P1;PMS_P2;Temp;Humidity;BMP_temperature;BMP_pressure;BME280_temperature;BME280_humidity;BME280_pressure;Samples;Min_cycle;Max_cycle;Signal;HPM_P1;HPM_P2
2022/03/30 00:01:34;;;;;;;28.55;14.98;;;6.20;99.70;;;;;;5067813;28;37474;-49
2022/03/30 00:04:01;;;;;;;30.20;14.00;;;6.30;99.70;;;;;;5068288;27;36927;-51
2022/03/30 00:06:28;;;;;;;31.13;14.45;;;6.40;99.80;;;;;;5068306;28;37342;-52
2022/03/30 00:08:56;;;;;;;35.45;15.10;;;6.40;99.70;;;;;;5070143;28;37601;-48
2022/03/30 00:11:23;;;;;;;25.13;14.02;;;6.40;99.70;;;;;;5070625;27;36186;-49
2022/03/30 00:13:50;;;;;;;34.92;14.95;;;6.50;99.70;;;;;;5069946;27;36893;-48
2022/03/30 00:16:18;;;;;;;24.15;13.80;;;6.50;99.60;;;;;;5069588;27;37611;-52
2022/03/30 00:18:47;;;;;;;29.02;14.13;;;6.50;99.60;;;;;;5070427;27;36361;-50
2022/03/30 00:21:14;;;;;;;30.33;16.00;;;6.50;99.50;;;;;;5071117;27;39380;-48
2022/03/30 00:23:41;;;;;;;23.92;13.90;;;6.50;99.50;;;;;;5079236;28;36898;-50
2022/03/30 00:26:09;;;;;;;30.38;15.00;;;6.50;99.60;;;;;;5081521;27;38065;-50
2022/03/30 00:28:36;;;;;;;28.60;15.45;;;6.40;99.60;;;;;;5081093;27;36546;-50
2022/03/30 00:31:03;;;;;;;26.52;14.18;;;6.50;99.80;;;;;;5081581;27;38291;-50
2022/03/30 00:33:31;;;;;;;29.70;13.75;;;6.50;99.90;;;;;;5080991;28;36479;-51
2022/03/30 00:35:59;;;;;;;28.50;14.38;;;6.50;99.90;;;;;;5081034;28;37684;-52
2022/03/30 00:38:27;;;;;;;30.13;14.85;;;6.50;99.90;;;;;;5079610;27;37265;-51
2022/03/30 00:40:54;;;;;;;28.23;13.40;;;6.50;99.90;;;;;;5080254;27;37840;-51
2022/03/30 00:43:21;;;;;;;29.33;13.27;;;6.50;99.90;;;;;;5080024;27;37162;-51
2022/03/30 00:45:49;;;;;;;25.48;14.07;;;6.50;99.90;;;;;;5080467;28;37608;-51
2022/03/30 00:48:16;;;;;;;27.80;14.50;;;6.50;99.90;;;;;;5080793;28;38943;-49
2022/03/30 00:50:43;;;;;;;29.77;13.90;;;6.50;99.90;;;;;;5080929;27;37032;-48
2022/03/30 00:53:12;;;;;;;31.38;14.52;;;6.50;99.90;;;;;;5080528;27;36668;-52
2022/03/30 00:55:39;;;;;;;35.58;13.85;;;6.50;99.90;;;;;;5081239;27;37397;-49
2022/03/30 00:58:08;;;;;;;25.67;12.85;;;6.50;99.90;;;;;;5080643;27;37667;-53
2022/03/30 01:00:35;;;;;;;31.25;12.65;;;6.50;99.90;;;;;;5080450;28;37607;-52
2022/03/30 01:03:03;;;;;;;27.73;12.30;;;6.60;99.90;;;;;;5081274;28;35379;-50
2022/03/30 01:05:31;;;;;;;27.80;13.55;;;6.70;99.90;;;;;;5080925;27;38058;-51
2022/03/30 01:07:59;;;;;;;25.33;12.50;;;6.70;99.90;;;;;;5080761;28;38763;-48
2022/03/30 01:10:28;;;;;;;26.83;12.43;;;6.70;99.90;;;;;;5080909;27;36151;-49
2022/03/30 01:12:55;;;;;;;27.17;14.10;;;6.70;99.90;;;;;;5079392;27;38862;-48
2022/03/30 01:15:23;;;;;;;23.98;13.00;;;6.80;99.90;;;;;;5078593;28;37313;-52
2022/03/30 01:17:51;;;;;;;29.60;13.10;;;6.80;99.90;;;;;;5077503;28;40443;-52
2022/03/30 01:20:21;;;;;;;32.10;14.35;;;6.90;99.90;;;;;;5079289;27;38556;-47
2022/03/30 01:22:50;;;;;;;26.02;12.05;;;6.90;99.90;;;;;;5079513;27;39217;-51
2022/03/30 01:25:18;;;;;;;22.38;12.18;;;6.90;99.90;;;;;;5079742;27;37504;-51
2022/03/30 01:27:46;;;;;;;25.50;12.15;;;7.00;99.90;;;;;;5080497;28;38209;-50
2022/03/30 01:33:03;;;;;;;20.90;12.18;;;6.90;99.90;;;;;;5079119;27;38114;-50
2022/03/30 01:35:31;;;;;;;24.85;10.95;;;6.90;99.90;;;;;;5079925;27;38064;-48
2022/03/30 01:37:59;;;;;;;26.70;12.25;;;7.00;99.90;;;;;;5080085;27;39823;-49
2022/03/30 01:40:27;;;;;;;26.05;11.55;;;7.00;99.90;;;;;;5080583;27;38387;-51
2022/03/30 01:42:54;;;;;;;27.75;11.77;;;7.00;99.90;;;;;;5080472;27;35337;-50
2022/03/30 01:45:22;;;;;;;23.02;11.32;;;7.00;99.90;;;;;;5080553;27;37469;-49
2022/03/30 01:47:54;;;;;;;23.85;11.80;;;7.00;99.90;;;;;;5079951;27;37987;-51
2022/03/30 01:50:22;;;;;;;29.27;11.68;;;7.00;99.90;;;;;;5080435;27;37380;-50
2022/03/30 01:52:49;;;;;;;22.58;12.15;;;7.10;99.90;;;;;;5080270;27;36484;-49
2022/03/30 01:55:19;;;;;;;27.05;11.38;;;7.10;99.90;;;;;;5080457;27;38251;-50
2022/03/30 01:57:47;;;;;;;24.33;12.20;;;7.10;99.90;;;;;;5080008;27;37782;-50
2022/03/30 02:00:16;;;;;;;22.00;12.68;;;7.00;99.90;;;;;;5078698;28;38778;-51
2022/03/30 02:02:43;;;;;;;26.58;12.75;;;7.00;99.90;;;;;;5080047;27;36692;-50
2022/03/30 02:05:11;;;;;;;30.08;13.45;;;7.00;99.90;;;;;;5078985;27;37375;-51
2022/03/30 02:07:39;;;;;;;27.13;13.27;;;7.10;99.90;;;;;;5079734;28;36372;-51
2022/03/30 02:10:09;;;;;;;26.67;12.65;;;7.10;99.90;;;;;;5079528;28;39001;-47
2022/03/30 02:12:39;;;;;;;29.63;12.23;;;7.10;99.90;;;;;;5079691;27;37605;-51
2022/03/30 02:15:07;;;;;;;27.85;13.30;;;7.00;99.90;;;;;;5079364;27;38546;-48
2022/03/30 02:17:35;;;;;;;24.73;13.35;;;7.00;99.90;;;;;;5079739;28;38196;-49
2022/03/30 02:20:02;;;;;;;25.58;11.80;;;7.00;99.90;;;;;;5079417;28;37338;-51
2022/03/30 02:22:30;;;;;;;26.05;11.13;;;7.00;99.90;;;;;;5079318;27;36966;-50
2022/03/30 02:24:57;;;;;;;22.58;9.98;;;7.00;99.90;;;;;;5079416;27;38987;-50
2022/03/30 02:27:25;;;;;;;20.35;8.90;;;7.00;99.90;;;;;;5079048;28;38216;-50
2022/03/30 02:29:54;;;;;;;15.10;6.78;;;7.00;99.90;;;;;;5079162;28;36175;-51
2022/03/30 02:32:22;;;;;;;16.65;7.80;;;7.00;99.90;;;;;;5079009;28;37393;-48
2022/03/30 02:34:49;;;;;;;14.15;5.88;;;6.90;99.90;;;;;;5079489;28;37590;-49
2022/03/30 02:37:17;;;;;;;8.68;4.03;;;6.90;99.90;;;;;;5079666;27;37812;-50
2022/03/30 02:39:44;;;;;;;7.00;2.47;;;6.90;99.90;;;;;;5077914;27;37009;-51
2022/03/30 02:42:12;;;;;;;5.55;2.40;;;6.90;99.90;;;;;;5078270;28;37275;-51
2022/03/30 02:44:40;;;;;;;6.55;1.30;;;6.80;99.90;;;;;;5078132;27;38374;-52
2022/03/30 02:47:09;;;;;;;3.75;1.00;;;6.90;99.90;;;;;;5078395;27;38467;-51
2022/03/30 02:49:36;;;;;;;2.63;0.80;;;6.90;99.90;;;;;;5078259;28;36714;-49
2022/03/30 02:52:05;;;;;;;9.45;0.77;;;6.80;99.90;;;;;;5078523;27;37481;-51
2022/03/30 02:54:32;;;;;;;3.25;0.55;;;6.80;99.90;;;;;;5078559;27;37631;-51
2022/03/30 02:56:59;;;;;;;3.40;0.70;;;6.80;99.90;;;;;;5079474;28;37528;-50
2022/03/30 02:59:27;;;;;;;4.65;0.60;;;6.80;99.90;;;;;;5078276;27;37605;-51
2022/03/30 03:01:55;;;;;;;2.80;0.50;;;6.80;99.90;;;;;;5079269;28;37741;-51
2022/03/30 03:04:24;;;;;;;1.45;0.60;;;6.70;99.90;;;;;;5078419;28;38385;-49
2022/03/30 03:06:52;;;;;;;2.42;0.70;;;6.70;99.90;;;;;;5078797;27;38351;-51
2022/03/30 03:09:19;;;;;;;1.58;0.45;;;6.70;99.90;;;;;;5079109;27;37191;-51
2022/03/30 03:11:47;;;;;;;3.28;0.75;;;6.60;99.90;;;;;;5079718;27;37512;-48
2022/03/30 03:14:14;;;;;;;2.92;0.60;;;6.60;99.90;;;;;;5078557;27;38306;-50
2022/03/30 03:16:41;;;;;;;3.88;0.70;;;6.70;99.90;;;;;;5077698;27;37598;-48
2022/03/30 03:19:08;;;;;;;1.80;0.43;;;6.70;99.90;;;;;;5078236;27;39313;-50
2022/03/30 03:21:37;;;;;;;2.40;0.50;;;6.70;99.90;;;;;;5079089;28;36962;-50
2022/03/30 03:24:05;;;;;;;5.55;0.82;;;6.70;99.90;;;;;;5078838;28;39814;-50
2022/03/30 03:26:32;;;;;;;2.15;0.45;;;6.60;99.90;;;;;;5078718;27;36347;-51
2022/03/30 03:29:02;;;;;;;2.08;0.45;;;6.70;99.90;;;;;;5078680;27;38482;-48
2022/03/30 03:31:29;;;;;;;3.58;0.47;;;6.60;99.90;;;;;;5077102;28;35340;-49
2022/03/30 03:33:56;;;;;;;0.82;0.25;;;6.60;99.90;;;;;;5077106;28;39844;-50
2022/03/30 03:36:24;;;;;;;1.80;0.47;;;6.60;99.90;;;;;;5078430;28;37883;-52
2022/03/30 03:38:52;;;;;;;2.10;0.63;;;6.60;99.90;;;;;;5078350;27;39105;-51
2022/03/30 03:41:20;;;;;;;2.55;0.60;;;6.70;99.90;;;;;;5078093;28;35239;-52
2022/03/30 03:43:47;;;;;;;1.33;0.30;;;6.60;99.90;;;;;;5078099;28;38554;-51
2022/03/30 03:46:15;;;;;;;3.97;0.50;;;6.70;99.90;;;;;;5077783;28;37874;-49
2022/03/30 03:48:42;;;;;;;2.78;0.40;;;6.60;99.90;;;;;;5078038;27;37097;-50
2022/03/30 03:51:09;;;;;;;3.63;0.47;;;6.60;99.90;;;;;;5078238;27;36283;-51
2022/03/30 03:53:37;;;;;;;0.85;0.28;;;6.50;99.90;;;;;;5078316;27;37530;-51
2022/03/30 03:56:08;;;;;;;4.00;1.08;;;6.50;99.90;;;;;;5078919;27;38230;-47
2022/03/30 03:58:35;;;;;;;1.52;0.30;;;6.40;99.90;;;;;;5082350;27;37651;-51
2022/03/30 04:01:02;;;;;;;0.82;0.25;;;6.40;99.90;;;;;;5080648;27;36477;-50
2022/03/30 04:03:30;;;;;;;0.95;0.30;;;6.40;99.90;;;;;;5081739;27;38193;-48
2022/03/30 04:05:57;;;;;;;1.15;0.20;;;6.40;99.90;;;;;;5080993;27;37648;-51
2022/03/30 04:08:24;;;;;;;2.30;0.30;;;6.40;99.90;;;;;;5080622;27;35862;-49
2022/03/30 04:10:52;;;;;;;1.85;0.22;;;6.40;99.90;;;;;;5079783;27;36631;-49
2022/03/30 04:13:20;;;;;;;0.70;0.20;;;6.40;99.90;;;;;;5080166;28;38608;-48
2022/03/30 04:15:47;;;;;;;1.83;0.47;;;6.40;99.90;;;;;;5079602;28;38141;-48
2022/03/30 04:18:15;;;;;;;1.42;0.60;;;6.40;99.90;;;;;;5081318;28;36081;-49
2022/03/30 04:20:44;;;;;;;2.47;0.47;;;6.40;99.90;;;;;;5079885;27;36728;-50
2022/03/30 04:23:11;;;;;;;1.80;0.32;;;6.50;99.90;;;;;;5081146;27;38263;-49
2022/03/30 04:25:39;;;;;;;1.90;0.50;;;6.40;99.90;;;;;;5080444;27;37884;-49
2022/03/30 04:28:06;;;;;;;3.55;0.52;;;6.40;99.90;;;;;;5081255;27;37052;-50
2022/03/30 04:30:35;;;;;;;4.68;0.80;;;6.40;99.90;;;;;;5080506;27;36205;-50
2022/03/30 04:33:03;;;;;;;3.00;0.45;;;6.40;99.90;;;;;;5080327;28;36936;-51
2022/03/30 04:35:30;;;;;;;1.55;0.60;;;6.40;99.90;;;;;;5079498;27;37652;-51
2022/03/30 04:37:58;;;;;;;1.92;0.80;;;6.40;99.90;;;;;;5081345;27;36070;-49
2022/03/30 04:40:28;;;;;;;1.02;0.60;;;6.40;99.90;;;;;;5081396;28;35220;-51
2022/03/30 04:42:55;;;;;;;2.75;0.93;;;6.40;99.90;;;;;;5081155;27;38864;-51
2022/03/30 04:45:24;;;;;;;2.10;0.60;;;6.40;99.90;;;;;;5081662;28;36461;-46
2022/03/30 04:47:53;;;;;;;6.72;1.52;;;6.40;99.90;;;;;;5080406;27;37220;-51
2022/03/30 04:50:21;;;;;;;3.50;0.80;;;6.40;99.90;;;;;;5081589;27;37290;-47
2022/03/30 04:52:49;;;;;;;5.18;0.80;;;6.40;99.90;;;;;;5080659;27;37594;-51
2022/03/30 04:55:16;;;;;;;3.40;1.00;;;6.40;99.90;;;;;;5081240;27;37449;-49
2022/03/30 04:57:43;;;;;;;3.25;1.10;;;6.40;99.90;;;;;;5081186;27;37245;-50
2022/03/30 05:00:12;;;;;;;6.18;1.17;;;6.30;99.90;;;;;;5079438;27;36408;-52
2022/03/30 05:02:40;;;;;;;2.60;1.08;;;6.30;99.90;;;;;;5080859;28;39532;-51
2022/03/30 05:05:10;;;;;;;5.05;1.05;;;6.30;99.90;;;;;;5080650;28;36378;-50
2022/03/30 05:07:38;;;;;;;3.45;1.10;;;6.40;99.90;;;;;;5080045;27;37475;-51
2022/03/30 05:10:09;;;;;;;4.32;0.82;;;6.30;99.90;;;;;;5080373;27;36704;-49
2022/03/30 05:12:37;;;;;;;5.80;1.55;;;6.30;99.90;;;;;;5080375;28;37331;-48
2022/03/30 05:15:05;;;;;;;4.10;1.00;;;6.30;99.90;;;;;;5080545;27;37710;-49
2022/03/30 05:17:32;;;;;;;5.22;0.88;;;6.30;99.90;;;;;;5080473;27;38272;-49
2022/03/30 05:19:59;;;;;;;3.08;2.05;;;6.30;99.90;;;;;;5080488;28;36503;-48
2022/03/30 05:22:28;;;;;;;2.50;1.00;;;6.30;99.90;;;;;;5080986;27;39298;-51
2022/03/30 05:24:56;;;;;;;3.13;1.00;;;6.30;99.90;;;;;;5080401;28;39186;-49
2022/03/30 05:27:23;;;;;;;4.60;1.60;;;6.30;99.90;;;;;;5079787;27;38600;-50
2022/03/30 05:29:50;;;;;;;6.28;1.40;;;6.30;99.90;;;;;;5079955;27;36989;-49
2022/03/30 05:32:18;;;;;;;2.55;0.90;;;6.30;99.90;;;;;;5079376;28;36184;-48
2022/03/30 05:34:45;;;;;;;4.13;1.35;;;6.30;99.90;;;;;;5079838;27;37720;-48
2022/03/30 05:37:13;;;;;;;3.97;1.15;;;6.30;99.90;;;;;;5079134;27;38679;-47
2022/03/30 05:39:42;;;;;;;4.60;1.23;;;6.30;99.90;;;;;;5079379;27;35177;-51
2022/03/30 05:42:09;;;;;;;2.45;0.85;;;6.30;99.90;;;;;;5079240;27;38483;-51
2022/03/30 05:44:37;;;;;;;6.28;1.02;;;6.20;99.90;;;;;;5080894;28;36308;-51
2022/03/30 05:47:06;;;;;;;4.13;1.27;;;6.30;99.90;;;;;;5080604;27;37963;-48
2022/03/30 05:49:34;;;;;;;3.80;1.20;;;6.30;99.90;;;;;;5080368;27;35387;-50
2022/03/30 05:52:02;;;;;;;4.82;1.05;;;6.30;99.90;;;;;;5080428;28;37742;-51
2022/03/30 05:54:29;;;;;;;3.80;1.30;;;6.20;99.90;;;;;;5079798;27;38854;-51
2022/03/30 05:57:01;;;;;;;2.40;1.30;;;6.20;99.90;;;;;;5080029;27;35887;-51
2022/03/30 05:59:29;;;;;;;6.07;3.05;;;6.20;99.90;;;;;;5079369;28;37201;-49
2022/03/30 06:01:57;;;;;;;6.93;2.45;;;6.20;99.90;;;;;;5079092;27;37729;-51
2022/03/30 06:04:25;;;;;;;6.88;2.30;;;6.20;99.90;;;;;;5079921;28;39461;-49
2022/03/30 06:06:52;;;;;;;5.15;1.92;;;6.20;99.90;;;;;;5079451;27;37465;-50
2022/03/30 06:09:20;;;;;;;6.38;1.70;;;6.20;99.90;;;;;;5079019;27;36700;-49
2022/03/30 06:11:48;;;;;;;2.60;0.93;;;6.30;99.90;;;;;;5080053;27;38413;-49
2022/03/30 06:14:17;;;;;;;4.75;1.15;;;6.30;99.90;;;;;;5080065;27;36452;-49
2022/03/30 06:16:45;;;;;;;8.68;2.10;;;6.40;99.90;;;;;;5079156;28;38080;-48
2022/03/30 06:19:12;;;;;;;2.95;1.35;;;6.40;99.90;;;;;;5075887;28;38843;-51
2022/03/30 06:21:42;;;;;;;6.85;1.45;;;6.50;99.90;;;;;;5077694;27;37647;-51
2022/03/30 06:24:10;;;;;;;4.78;2.20;;;6.50;99.90;;;;;;5077696;27;38946;-51
2022/03/30 06:26:38;;;;;;;6.93;3.35;;;6.60;99.90;;;;;;5078029;28;37952;-50
2022/03/30 06:29:05;;;;;;;6.10;2.15;;;6.60;99.90;;;;;;5077788;27;36537;-47
2022/03/30 06:31:34;;;;;;;4.28;1.50;;;6.70;99.90;;;;;;5078462;28;37859;-51
2022/03/30 06:34:01;;;;;;;10.52;1.63;;;6.70;99.90;;;;;;5076566;28;38086;-51
2022/03/30 06:36:29;;;;;;;5.15;1.50;;;6.70;99.90;;;;;;5078177;28;39031;-48
2022/03/30 06:38:58;;;;;;;5.60;2.00;;;6.80;99.90;;;;;;5078379;28;36539;-49
2022/03/30 06:41:26;;;;;;;4.78;1.42;;;6.90;99.90;;;;;;5077918;28;36215;-51
2022/03/30 06:43:53;;;;;;;4.63;1.45;;;7.00;99.90;;;;;;5078663;27;38669;-50
2022/03/30 06:46:20;;;;;;;3.22;1.20;;;7.00;99.90;;;;;;5076855;28;37272;-50
2022/03/30 06:48:49;;;;;;;6.47;1.50;;;7.10;99.80;;;;;;5077994;27;36688;-51
2022/03/30 06:51:16;;;;;;;5.18;1.13;;;7.10;99.70;;;;;;5076850;27;37416;-51
2022/03/30 06:53:44;;;;;;;5.70;1.40;;;7.10;99.70;;;;;;5078465;27;37733;-49
2022/03/30 06:56:11;;;;;;;3.95;1.60;;;7.20;99.70;;;;;;5077361;27;36046;-48
2022/03/30 06:58:38;;;;;;;8.93;3.42;;;7.10;99.70;;;;;;5077529;28;37516;-50
2022/03/30 07:01:06;;;;;;;9.02;2.10;;;7.10;99.70;;;;;;5075964;27;37605;-51
2022/03/30 07:03:33;;;;;;;6.72;2.13;;;7.20;99.70;;;;;;5076949;27;36453;-49
2022/03/30 07:06:03;;;;;;;5.07;1.60;;;7.30;99.60;;;;;;5076503;27;38772;-51
2022/03/30 07:11:15;;;;;;;5.90;1.65;;;7.30;99.50;;;;;;5071600;28;37888;-51
2022/03/30 07:13:43;;;;;;;5.20;2.13;;;7.40;99.60;;;;;;5071509;28;37674;-49
2022/03/30 07:16:10;;;;;;;5.63;1.50;;;7.50;99.50;;;;;;5073734;28;37217;-51
2022/03/30 07:18:37;;;;;;;4.57;1.30;;;7.70;99.30;;;;;;5074450;27;36805;-49
2022/03/30 07:21:08;;;;;;;6.82;1.67;;;7.70;99.10;;;;;;5073910;27;36051;-49
2022/03/30 07:23:36;;;;;;;8.13;1.52;;;7.80;98.70;;;;;;5072699;27;37073;-48
2022/03/30 07:26:04;;;;;;;5.03;1.27;;;8.00;98.80;;;;;;5072806;27;37744;-49
2022/03/30 07:28:31;;;;;;;4.85;1.27;;;8.10;98.40;;;;;;5072765;28;36726;-50
2022/03/30 07:30:59;;;;;;;6.28;1.33;;;8.10;98.10;;;;;;5073963;27;36254;-47
2022/03/30 07:33:26;;;;;;;4.95;1.30;;;8.20;97.60;;;;;;5074123;27;39085;-51
2022/03/30 07:35:53;;;;;;;10.05;2.05;;;8.10;97.40;;;;;;5073623;28;38414;-50
2022/03/30 07:38:22;;;;;;;8.15;1.40;;;8.20;97.50;;;;;;5074533;27;36190;-49
2022/03/30 07:40:50;;;;;;;5.20;1.10;;;8.30;97.10;;;;;;5073816;27;38142;-51
2022/03/30 07:43:19;;;;;;;7.78;1.70;;;8.20;96.50;;;;;;5073081;28;37421;-47
2022/03/30 07:45:47;;;;;;;3.97;1.30;;;8.30;96.90;;;;;;5073063;27;37118;-50
2022/03/30 07:48:14;;;;;;;8.07;1.30;;;8.40;96.70;;;;;;5073780;27;37108;-48
2022/03/30 07:50:42;;;;;;;4.45;0.85;;;8.50;96.20;;;;;;5073310;27;38812;-47
2022/03/30 07:53:09;;;;;;;4.25;1.00;;;8.50;95.70;;;;;;5073948;28;37949;-48
2022/03/30 07:55:39;;;;;;;4.43;1.02;;;8.50;95.40;;;;;;5074363;27;37490;-49
2022/03/30 07:58:06;;;;;;;7.50;1.08;;;8.60;95.10;;;;;;5072781;27;37516;-50
2022/03/30 08:00:34;;;;;;;6.82;1.10;;;8.60;94.80;;;;;;5073887;27;38416;-48
2022/03/30 08:03:03;;;;;;;5.75;1.02;;;8.70;94.30;;;;;;5073714;28;37799;-50
2022/03/30 08:05:31;;;;;;;8.02;1.00;;;8.70;94.10;;;;;;5074710;27;37326;-47
2022/03/30 08:07:58;;;;;;;6.80;1.10;;;8.60;94.20;;;;;;5073552;27;36961;-46
2022/03/30 08:10:28;;;;;;;7.38;1.02;;;8.50;93.40;;;;;;5072380;27;37693;-48
2022/03/30 08:12:57;;;;;;;3.78;0.77;;;8.30;93.60;;;;;;5072846;27;37513;-47
2022/03/30 08:15:24;;;;;;;5.90;1.35;;;8.20;93.80;;;;;;5072581;28;38107;-50
2022/03/30 08:17:54;;;;;;;4.07;1.10;;;8.30;94.20;;;;;;5072843;27;36197;-49
2022/03/30 08:23:08;;;;;;;4.60;0.63;;;8.30;94.10;;;;;;5073053;28;38870;-49
2022/03/30 08:25:36;;;;;;;6.15;1.10;;;8.30;93.70;;;;;;5072048;27;37095;-47
2022/03/30 08:28:06;;;;;;;4.60;0.80;;;8.20;93.60;;;;;;5071420;28;39216;-48
2022/03/30 08:30:34;;;;;;;4.00;1.15;;;8.20;93.60;;;;;;5071218;28;38283;-51
2022/03/30 08:33:03;;;;;;;7.60;1.13;;;8.20;93.20;;;;;;5071316;27;37446;-49
2022/03/30 08:35:31;;;;;;;6.88;0.93;;;8.30;92.90;;;;;;5073932;28;35938;-46
2022/03/30 08:38:01;;;;;;;4.22;0.70;;;8.20;92.60;;;;;;5073760;28;36106;-50
2022/03/30 08:40:29;;;;;;;5.72;0.70;;;8.30;91.90;;;;;;5072000;28;37540;-49
2022/03/30 08:42:56;;;;;;;7.22;0.98;;;8.30;92.10;;;;;;5074730;27;37428;-49
2022/03/30 08:45:25;;;;;;;2.45;0.50;;;8.40;92.20;;;;;;5075696;27;37429;-49
2022/03/30 08:47:53;;;;;;;6.00;1.10;;;8.50;91.90;;;;;;5075424;28;36592;-49
2022/03/30 08:50:21;;;;;;;7.95;1.35;;;8.60;91.40;;;;;;5076805;27;37606;-48
2022/03/30 08:52:49;;;;;;;4.93;0.98;;;8.70;90.40;;;;;;5074692;28;37590;-48
2022/03/30 08:55:17;;;;;;;3.13;0.50;;;8.80;90.40;;;;;;5070792;27;37230;-51
2022/03/30 08:57:44;;;;;;;4.43;0.70;;;8.90;90.30;;;;;;5074339;27;35058;-51
2022/03/30 09:00:16;;;;;;;5.13;0.98;;;9.00;89.50;;;;;;5075199;27;37495;-48
2022/03/30 09:02:46;;;;;;;2.70;0.70;;;9.00;88.30;;;;;;5074977;27;37884;-49
2022/03/30 09:05:16;;;;;;;2.38;0.50;;;9.10;87.30;;;;;;5075210;28;37284;-49
2022/03/30 09:07:45;;;;;;;4.65;1.00;;;9.10;86.70;;;;;;5076838;27;37429;-48
2022/03/30 09:10:18;;;;;;;4.22;0.70;;;9.20;85.40;;;;;;5076375;28;38726;-48
2022/03/30 09:12:46;;;;;;;4.72;1.05;;;9.20;84.90;;;;;;5076208;28;38395;-48
2022/03/30 09:15:14;;;;;;;3.50;0.50;;;9.20;84.90;;;;;;5075617;27;38808;-49
2022/03/30 09:17:44;;;;;;;5.97;1.00;;;9.30;83.60;;;;;;5075978;27;36185;-48
2022/03/30 09:20:17;;;;;;;4.53;0.52;;;9.40;81.70;;;;;;5075503;27;38385;-48
2022/03/30 09:22:46;;;;;;;4.32;0.73;;;9.40;80.20;;;;;;5075195;28;36366;-47
2022/03/30 09:25:13;;;;;;;4.93;0.80;;;9.40;81.30;;;;;;5076281;28;35998;-51
2022/03/30 09:27:42;;;;;;;4.55;0.80;;;9.40;80.20;;;;;;5075891;27;36539;-49
2022/03/30 09:30:12;;;;;;;3.47;0.93;;;9.50;79.50;;;;;;5075979;28;36161;-51
2022/03/30 09:32:42;;;;;;;3.15;0.70;;;9.60;80.50;;;;;;5075424;27;37903;-51
2022/03/30 09:35:24;;;;;;;8.60;1.08;;;9.80;79.30;;;;;;5076002;28;37813;-48
2022/03/30 09:38:08;;;;;;;6.38;0.77;;;9.90;77.10;;;;;;5075738;27;36591;-49
2022/03/30 09:40:38;;;;;;;4.40;0.65;;;10.10;76.50;;;;;;5075533;27;37416;-50
2022/03/30 09:43:20;;;;;;;6.25;0.80;;;10.20;75.70;;;;;;5074856;28;37656;-49
2022/03/30 09:45:50;;;;;;;7.00;0.68;;;10.30;73.90;;;;;;5075310;27;37311;-50
2022/03/30 09:48:21;;;;;;;4.00;0.85;;;10.30;74.70;;;;;;5076716;27;37673;-48
2022/03/30 09:50:52;;;;;;;6.43;1.00;;;10.40;73.80;;;;;;5074988;28;36085;-48
2022/03/30 09:53:22;;;;;;;2.38;0.60;;;10.50;72.90;;;;;;5074332;27;38877;-47
2022/03/30 09:55:57;;;;;;;8.13;0.63;;;10.50;72.60;;;;;;5075867;27;37539;-50
2022/03/30 09:58:26;;;;;;;5.30;0.70;;;10.70;71.00;;;;;;5075782;27;35276;-51
2022/03/30 10:01:08;;;;;;;2.10;0.55;;;10.80;71.50;;;;;;5075540;27;37561;-48
2022/03/30 10:03:39;;;;;;;5.07;0.88;;;11.10;68.40;;;;;;5074345;28;37844;-47
2022/03/30 10:06:09;;;;;;;2.70;0.50;;;11.10;67.30;;;;;;5073141;27;37491;-48
2022/03/30 10:08:36;;;;;;;3.97;1.13;;;10.90;66.00;;;;;;5074024;28;35216;-51
2022/03/30 10:11:04;;;;;;;5.03;0.90;;;10.70;66.00;;;;;;5074529;27;38368;-48
2022/03/30 10:13:31;;;;;;;8.50;1.10;;;10.50;66.60;;;;;;5073976;27;38787;-49
2022/03/30 10:15:59;;;;;;;3.40;0.80;;;10.40;67.70;;;;;;5075772;27;36177;-52
2022/03/30 10:18:27;;;;;;;5.32;0.80;;;10.30;68.00;;;;;;5075591;28;36384;-50
2022/03/30 10:21:06;;;;;;;5.93;0.75;;;10.20;67.90;;;;;;5075105;27;38434;-49
2022/03/30 10:23:49;;;;;;;5.22;0.63;;;10.10;67.20;;;;;;5074863;28;20148;-47
2022/03/30 10:26:26;;;;;;;7.13;0.98;;;10.00;68.00;;;;;;5074997;27;36959;-49
2022/03/30 10:29:00;;;;;;;4.20;0.70;;;9.90;68.70;;;;;;5073867;27;36638;-48
2022/03/30 10:31:30;;;;;;;2.35;0.70;;;9.90;69.50;;;;;;5072928;27;38326;-47
2022/03/30 10:33:57;;;;;;;5.35;0.88;;;10.10;68.50;;;;;;5073929;27;36592;-50
2022/03/30 10:36:27;;;;;;;5.50;1.05;;;10.20;68.30;;;;;;5071317;27;37440;-51
2022/03/30 10:39:26;;;;;;;3.05;0.80;;;10.10;67.80;;;;;;5073351;27;38017;-49
2022/03/30 10:41:56;;;;;;;5.10;1.00;;;10.20;69.00;;;;;;5073396;28;37750;-50
2022/03/30 10:44:37;;;;;;;11.20;2.17;;;10.30;69.40;;;;;;5074132;28;37563;-48
2022/03/30 10:47:12;;;;;;;9.07;1.35;;;10.60;68.60;;;;;;5073743;27;36508;-49
2022/03/30 10:49:45;;;;;;;7.93;1.30;;;10.60;68.90;;;;;;5074051;27;35140;-47
2022/03/30 10:52:32;;;;;;;3.53;0.85;;;10.70;70.00;;;;;;5074087;27;37735;-50
2022/03/30 10:55:31;;;;;;;5.53;1.10;;;10.70;69.10;;;;;;5074141;27;38322;-49
2022/03/30 10:58:01;;;;;;;6.00;1.02;;;10.50;69.20;;;;;;5074656;27;38019;-47
2022/03/30 11:00:31;;;;;;;3.40;0.73;;;10.30;69.00;;;;;;5075024;28;35424;-52
2022/03/30 11:03:10;;;;;;;3.83;0.90;;;10.10;67.50;;;;;;5069459;27;38504;-51
2022/03/30 11:05:43;;;;;;;5.28;0.68;;;9.80;66.30;;;;;;5073038;28;36463;-48
2022/03/30 11:08:40;;;;;;;5.68;1.20;;;9.60;67.90;;;;;;5072893;27;38199;-50
2022/03/30 11:11:22;;;;;;;5.25;0.68;;;9.50;67.40;;;;;;5061631;28;35287;-47
2022/03/30 11:13:50;;;;;;;5.50;0.70;;;9.30;67.60;;;;;;5070689;27;37733;-47
2022/03/30 11:16:17;;;;;;;5.68;0.93;;;9.10;68.80;;;;;;5070404;28;37646;-51
2022/03/30 11:18:57;;;;;;;2.50;0.60;;;9.10;69.60;;;;;;5072663;27;37275;-55
2022/03/30 11:21:25;;;;;;;4.55;0.82;;;9.10;69.90;;;;;;5071943;27;36603;-56
2022/03/30 11:24:05;;;;;;;5.22;0.70;;;9.10;70.40;;;;;;5070895;28;38314;-55
2022/03/30 11:27:21;;;;;;;3.65;0.88;;;9.10;69.10;;;;;;5072062;27;38096;-56
2022/03/30 11:30:12;;;;;;;3.35;0.90;;;9.20;67.20;;;;;;5070368;27;36960;-55
2022/03/30 11:32:56;;;;;;;3.08;0.70;;;9.30;69.90;;;;;;5070504;27;36435;-56
2022/03/30 11:35:28;;;;;;;5.25;0.90;;;9.70;68.90;;;;;;5071128;28;38424;-55
2022/03/30 11:38:10;;;;;;;5.57;0.80;;;9.80;67.70;;;;;;5070965;27;39826;-49
2022/03/30 11:40:43;;;;;;;4.95;1.23;;;10.10;67.00;;;;;;5071365;27;35985;-49
2022/03/30 11:43:11;;;;;;;2.93;0.70;;;10.20;65.70;;;;;;5068311;28;37837;-49
2022/03/30 11:45:40;;;;;;;5.63;1.48;;;10.30;64.10;;;;;;5071483;27;36278;-55
2022/03/30 11:48:10;;;;;;;7.80;0.80;;;10.50;63.80;;;;;;5072912;27;38076;-55
2022/03/30 11:50:40;;;;;;;7.68;1.15;;;10.50;63.10;;;;;;5064279;28;37046;-56
2022/03/30 11:53:10;;;;;;;5.53;0.90;;;10.50;62.30;;;;;;5066059;27;36675;-55
2022/03/30 11:55:49;;;;;;;5.85;0.90;;;10.70;62.40;;;;;;5069639;27;37272;-55
2022/03/30 11:58:24;;;;;;;2.90;0.55;;;10.90;62.30;;;;;;5071508;27;38246;-55
2022/03/30 12:00:53;;;;;;;7.13;0.95;;;11.20;60.40;;;;;;5071686;27;39415;-55
2022/03/30 12:03:21;;;;;;;5.95;1.45;;;11.30;60.00;;;;;;5072444;27;37615;-55
2022/03/30 12:05:51;;;;;;;2.45;1.25;;;11.30;58.70;;;;;;5071453;27;37314;-55
2022/03/30 12:08:19;;;;;;;3.63;0.80;;;11.30;58.10;;;;;;5071479;28;38987;-55
2022/03/30 12:10:48;;;;;;;6.47;0.85;;;11.30;58.30;;;;;;5069596;28;37013;-54
2022/03/30 12:13:23;;;;;;;5.22;1.00;;;11.40;57.90;;;;;;5070968;27;35107;-55
2022/03/30 12:16:03;;;;;;;5.82;1.10;;;11.40;58.70;;;;;;5071532;27;36127;-55
2022/03/30 12:18:30;;;;;;;4.70;1.00;;;11.30;57.90;;;;;;5074638;27;38434;-55
2022/03/30 12:21:01;;;;;;;4.13;0.82;;;11.20;58.70;;;;;;5074686;27;39650;-55
2022/03/30 12:23:28;;;;;;;7.45;1.48;;;11.10;57.70;;;;;;5073684;28;35314;-54
2022/03/30 12:25:56;;;;;;;3.47;0.70;;;11.00;57.90;;;;;;5075136;28;37724;-54
2022/03/30 12:28:31;;;;;;;4.90;0.90;;;11.00;58.00;;;;;;5075453;28;38007;-55
2022/03/30 12:30:58;;;;;;;3.55;0.68;;;11.00;57.60;;;;;;5075205;27;38498;-55
2022/03/30 12:33:27;;;;;;;4.90;1.20;;;10.90;57.80;;;;;;5073447;27;36490;-55
2022/03/30 12:35:55;;;;;;;9.05;1.50;;;10.90;57.60;;;;;;5076405;28;37929;-55
2022/03/30 12:38:24;;;;;;;10.18;1.40;;;10.80;57.50;;;;;;5073395;27;36427;-47
2022/03/30 12:40:53;;;;;;;3.80;0.85;;;10.70;57.70;;;;;;5075160;28;38003;-50
2022/03/30 12:43:26;;;;;;;3.75;0.60;;;10.60;59.20;;;;;;5071953;27;36549;-48
2022/03/30 12:45:59;;;;;;;3.85;0.70;;;10.40;59.10;;;;;;5075232;27;37779;-48
2022/03/30 12:48:31;;;;;;;7.05;1.42;;;10.30;60.10;;;;;;5074497;28;37858;-49
2022/03/30 12:50:59;;;;;;;5.22;0.80;;;10.10;60.10;;;;;;5075471;27;37422;-50
2022/03/30 12:53:36;;;;;;;2.63;0.63;;;10.00;60.80;;;;;;5075316;27;36503;-50
2022/03/30 12:56:15;;;;;;;5.47;1.10;;;9.90;60.90;;;;;;5075191;27;37704;-48
2022/03/30 12:58:56;;;;;;;6.25;0.90;;;9.90;62.20;;;;;;5074853;27;36870;-47
2022/03/30 13:01:31;;;;;;;5.60;1.10;;;10.00;61.90;;;;;;5074364;27;38852;-48
2022/03/30 13:04:00;;;;;;;5.05;1.00;;;10.00;60.50;;;;;;5074904;28;35261;-51
2022/03/30 13:06:27;;;;;;;3.90;0.90;;;10.00;60.70;;;;;;5073328;28;38208;-49
2022/03/30 13:09:12;;;;;;;5.72;0.90;;;10.00;60.30;;;;;;5074188;27;37453;-49
2022/03/30 13:11:44;;;;;;;6.53;2.08;;;10.00;60.00;;;;;;5074283;28;37682;-50